Time;durP1;ratioP1;P1;durP2;ratioP2;P2;SDS_P1;SDS_P2;PMS_P1;PMS_P2;Temp;Humidity;BMP_temperature;BMP_pressure;BME280_temperature;BME280_humidity;BME280_pressure;Samples;Min_cycle;Max_cycle;Signal;HPM_P1;HPM_P2
2022/11/16 00:01:20;;;;;;;2.77;2.57;;;10.20;99.90;;;;;;477277;249;28146;-67
2022/11/16 00:03:22;;;;;;;3.43;2.90;;;10.20;99.90;;;;;;477257;249;27837;-66
2022/11/16 00:05:23;;;;;;;2.83;2.63;;;10.20;99.90;;;;;;477247;249;28488;-67
2022/11/16 00:07:24;;;;;;;2.67;2.47;;;10.20;99.90;;;;;;477226;249;28822;-66
2022/11/16 00:09:30;;;;;;;2.43;2.23;;;10.20;99.90;;;;;;477260;249;28519;-66
2022/11/16 00:11:30;;;;;;;3.30;3.00;;;10.20;99.90;;;;;;477158;249;27991;-67
2022/11/16 00:13:31;;;;;;;2.70;2.50;;;10.20;99.90;;;;;;476874;249;28612;-67
2022/11/16 00:15:32;;;;;;;2.93;2.60;;;10.30;99.90;;;;;;475956;249;28759;-66
2022/11/16 00:17:33;;;;;;;2.70;2.50;;;10.30;99.90;;;;;;475974;249;28509;-66
2022/11/16 00:19:35;;;;;;;2.20;2.10;;;10.30;99.90;;;;;;476482;249;28180;-68
2022/11/16 00:21:36;;;;;;;2.33;2.20;;;10.30;99.90;;;;;;477144;249;28206;-66
2022/11/16 00:23:40;;;;;;;2.50;2.30;;;10.30;99.90;;;;;;477238;249;27845;-67
2022/11/16 00:25:41;;;;;;;2.70;2.47;;;10.30;99.90;;;;;;477247;249;28105;-68
2022/11/16 00:27:43;;;;;;;2.20;2.10;;;10.30;99.90;;;;;;477245;249;27692;-66
2022/11/16 00:29:43;;;;;;;2.10;2.00;;;10.30;99.90;;;;;;477194;249;28030;-66
2022/11/16 00:31:45;;;;;;;2.37;2.17;;;10.30;99.90;;;;;;477269;249;28538;-69
2022/11/16 00:33:46;;;;;;;2.20;2.10;;;10.30;99.90;;;;;;477257;249;28075;-66
2022/11/16 00:35:47;;;;;;;2.00;1.90;;;10.30;99.90;;;;;;477208;249;28742;-67
2022/11/16 00:37:49;;;;;;;1.90;1.80;;;10.30;99.90;;;;;;477232;249;28540;-66
2022/11/16 00:39:50;;;;;;;3.93;2.33;;;10.30;99.90;;;;;;477240;249;28074;-66
2022/11/16 00:41:51;;;;;;;2.37;2.23;;;10.30;99.90;;;;;;477286;249;27653;-69
2022/11/16 00:43:52;;;;;;;2.30;2.10;;;10.30;99.90;;;;;;477260;249;28079;-66
2022/11/16 00:45:54;;;;;;;1.90;1.80;;;10.20;99.90;;;;;;477259;249;27866;-67
2022/11/16 00:47:55;;;;;;;2.40;2.20;;;10.30;99.90;;;;;;477227;249;27969;-66
2022/11/16 00:49:56;;;;;;;2.00;1.90;;;10.30;99.90;;;;;;477236;249;28132;-66
2022/11/16 00:51:57;;;;;;;3.80;2.60;;;10.30;99.90;;;;;;477266;249;27697;-68
2022/11/16 00:53:59;;;;;;;2.63;2.43;;;10.20;99.90;;;;;;477189;249;27986;-66
2022/11/16 00:56:00;;;;;;;2.00;1.90;;;10.20;99.90;;;;;;477254;249;27976;-66
2022/11/16 00:58:01;;;;;;;3.57;2.00;;;10.20;99.90;;;;;;477222;249;28430;-67
2022/11/16 01:00:03;;;;;;;1.90;1.80;;;10.20;99.90;;;;;;477254;249;28385;-66
2022/11/16 01:02:04;;;;;;;2.13;1.80;;;10.20;99.90;;;;;;477274;249;28037;-69
2022/11/16 01:04:05;;;;;;;2.70;2.43;;;10.20;99.90;;;;;;477278;249;28144;-66
2022/11/16 01:06:06;;;;;;;2.00;1.90;;;10.20;99.90;;;;;;477244;249;28021;-67
2022/11/16 01:08:07;;;;;;;1.70;1.60;;;10.20;99.90;;;;;;477270;249;27591;-66
2022/11/16 01:10:09;;;;;;;2.40;2.23;;;10.20;99.90;;;;;;477225;249;28088;-67
2022/11/16 01:12:11;;;;;;;1.93;1.83;;;10.20;99.90;;;;;;477269;249;28052;-68
2022/11/16 01:14:11;;;;;;;2.30;2.00;;;10.20;99.90;;;;;;477193;249;28063;-66
2022/11/16 01:16:13;;;;;;;2.40;2.20;;;10.20;99.90;;;;;;477230;249;28004;-67
2022/11/16 01:18:14;;;;;;;2.10;1.90;;;10.20;99.90;;;;;;477280;249;28170;-66
2022/11/16 01:20:15;;;;;;;2.13;1.93;;;10.30;99.90;;;;;;477236;249;27981;-67
2022/11/16 01:22:16;;;;;;;2.20;2.10;;;10.20;99.90;;;;;;477259;249;28017;-68
2022/11/16 01:24:17;;;;;;;2.40;2.20;;;10.20;99.90;;;;;;477227;249;27841;-66
2022/11/16 01:26:19;;;;;;;3.77;2.20;;;10.20;99.90;;;;;;477208;249;28049;-65
2022/11/16 01:28:20;;;;;;;2.43;1.90;;;10.20;99.90;;;;;;477256;249;28144;-69
2022/11/16 01:30:21;;;;;;;2.23;2.13;;;10.20;99.90;;;;;;477273;249;27831;-67
2022/11/16 01:32:22;;;;;;;2.13;2.00;;;10.20;99.90;;;;;;477245;249;28531;-68
2022/11/16 01:34:24;;;;;;;2.20;1.90;;;10.20;99.90;;;;;;477210;249;28502;-66
2022/11/16 01:36:25;;;;;;;1.87;1.77;;;10.20;99.90;;;;;;477207;249;28528;-67
2022/11/16 01:38:26;;;;;;;4.70;2.10;;;10.20;99.90;;;;;;477279;249;27652;-69
2022/11/16 01:40:27;;;;;;;3.60;2.47;;;10.20;99.90;;;;;;477259;249;27976;-67
2022/11/16 01:42:29;;;;;;;2.00;1.90;;;10.20;99.90;;;;;;477249;249;28126;-68
2022/11/16 01:44:30;;;;;;;2.10;2.00;;;10.20;99.90;;;;;;477232;249;28076;-67
2022/11/16 01:46:32;;;;;;;1.90;1.80;;;10.20;99.90;;;;;;477214;249;27866;-67
2022/11/16 01:48:33;;;;;;;1.90;1.80;;;10.30;99.90;;;;;;477241;249;28105;-68
2022/11/16 01:50:35;;;;;;;2.20;2.00;;;10.30;99.90;;;;;;477185;249;27651;-69
2022/11/16 01:52:36;;;;;;;1.80;1.70;;;10.30;99.90;;;;;;477236;249;28262;-66
2022/11/16 01:54:37;;;;;;;1.83;1.73;;;10.40;99.90;;;;;;477215;249;28466;-67
2022/11/16 01:56:38;;;;;;;2.00;1.90;;;10.30;99.90;;;;;;477236;249;28480;-66
2022/11/16 01:58:40;;;;;;;1.70;1.60;;;10.40;99.90;;;;;;477209;249;27949;-66
2022/11/16 02:00:41;;;;;;;1.67;1.57;;;10.30;99.90;;;;;;477270;249;27881;-69
2022/11/16 02:02:42;;;;;;;2.20;1.90;;;10.30;99.90;;;;;;477248;249;28069;-66
2022/11/16 02:04:43;;;;;;;1.60;1.50;;;10.30;99.90;;;;;;477206;249;28012;-67
2022/11/16 02:06:45;;;;;;;1.73;1.63;;;10.30;99.90;;;;;;477230;249;27889;-66
2022/11/16 02:11:05;;;;;;;2.07;1.97;;;10.30;99.90;;;;;;477258;249;27945;-69
2022/11/16 02:13:07;;;;;;;1.50;1.40;;;10.30;99.90;;;;;;477232;249;27996;-66
2022/11/16 02:15:08;;;;;;;1.50;1.40;;;10.30;99.90;;;;;;477243;249;28026;-67
2022/11/16 02:17:09;;;;;;;2.00;1.60;;;10.20;99.90;;;;;;477227;249;28085;-66
2022/11/16 02:19:10;;;;;;;1.80;1.70;;;10.30;99.90;;;;;;477232;249;28084;-66
2022/11/16 02:21:12;;;;;;;1.70;1.60;;;10.30;99.90;;;;;;477257;249;27859;-67
2022/11/16 02:23:13;;;;;;;1.77;1.67;;;10.20;99.90;;;;;;477228;249;28064;-66
2022/11/16 02:25:14;;;;;;;1.40;1.40;;;10.20;99.90;;;;;;477217;249;28260;-65
2022/11/16 02:27:15;;;;;;;1.80;1.70;;;10.20;99.90;;;;;;477232;249;29181;-66
2022/11/16 02:29:17;;;;;;;1.80;1.70;;;10.20;99.90;;;;;;477258;249;28433;-66
2022/11/16 02:31:18;;;;;;;1.70;1.57;;;10.20;99.90;;;;;;477250;249;28538;-68
2022/11/16 02:33:19;;;;;;;2.90;1.93;;;10.20;99.90;;;;;;477204;249;27959;-66
2022/11/16 02:35:20;;;;;;;1.57;1.47;;;10.20;99.90;;;;;;477250;249;27918;-67
2022/11/16 02:37:22;;;;;;;1.80;1.70;;;10.20;99.90;;;;;;477211;249;28013;-69
2022/11/16 02:39:24;;;;;;;1.77;1.67;;;10.20;99.90;;;;;;477285;249;27951;-68
2022/11/16 02:41:25;;;;;;;1.90;1.80;;;10.10;99.90;;;;;;477266;249;28041;-66
2022/11/16 02:43:26;;;;;;;1.57;1.47;;;10.20;99.90;;;;;;477240;249;27741;-68
2022/11/16 02:45:27;;;;;;;1.53;1.43;;;10.10;99.90;;;;;;477269;249;28251;-66
2022/11/16 02:47:29;;;;;;;2.10;1.90;;;10.10;99.90;;;;;;477248;249;28390;-67
2022/11/16 02:49:30;;;;;;;2.60;2.10;;;10.10;99.90;;;;;;477240;249;28333;-66
2022/11/16 02:51:31;;;;;;;1.70;1.53;;;10.10;99.90;;;;;;477288;249;27746;-66
2022/11/16 02:53:32;;;;;;;1.87;1.77;;;10.10;99.90;;;;;;477318;249;28110;-69
2022/11/16 02:55:34;;;;;;;1.60;1.50;;;10.10;99.90;;;;;;477278;249;28062;-66
2022/11/16 02:57:35;;;;;;;2.10;2.00;;;10.10;99.90;;;;;;477270;249;27892;-70
2022/11/16 02:59:36;;;;;;;1.93;1.83;;;10.00;99.90;;;;;;477303;249;27962;-66
2022/11/16 03:01:37;;;;;;;1.93;1.73;;;10.00;99.90;;;;;;477368;249;28066;-67
2022/11/16 03:03:39;;;;;;;2.00;1.90;;;10.00;99.90;;;;;;477335;249;28007;-69
2022/11/16 03:05:40;;;;;;;1.77;1.67;;;10.00;99.90;;;;;;477338;249;28201;-66
2022/11/16 03:07:41;;;;;;;3.20;1.90;;;10.00;99.90;;;;;;477247;249;28031;-67
2022/11/16 03:09:42;;;;;;;1.63;1.53;;;10.00;99.90;;;;;;477242;249;28400;-66
2022/11/16 03:11:59;;;;;;;2.63;2.20;;;10.00;99.90;;;;;;477195;249;28422;-66
2022/11/16 03:14:00;;;;;;;1.50;1.40;;;10.00;99.90;;;;;;477245;249;27971;-65
2022/11/16 03:16:01;;;;;;;1.53;1.47;;;10.00;99.90;;;;;;477235;249;27800;-66
2022/11/16 03:18:03;;;;;;;1.67;1.57;;;10.00;99.90;;;;;;477242;249;27591;-66
2022/11/16 03:20:04;;;;;;;1.60;1.50;;;10.00;99.90;;;;;;477275;249;27966;-67
2022/11/16 03:22:05;;;;;;;1.83;1.70;;;10.00;99.90;;;;;;477286;249;28075;-69
2022/11/16 03:24:06;;;;;;;1.70;1.60;;;10.00;99.90;;;;;;477256;249;27633;-66
2022/11/16 03:26:08;;;;;;;1.57;1.40;;;10.00;99.90;;;;;;477254;249;28123;-67
2022/11/16 03:28:09;;;;;;;1.70;1.60;;;9.90;99.90;;;;;;477233;249;27980;-66
2022/11/16 03:30:10;;;;;;;1.20;1.20;;;9.90;99.90;;;;;;477241;249;28388;-66
2022/11/16 03:32:11;;;;;;;1.43;1.33;;;9.90;99.90;;;;;;477260;249;28595;-70
2022/11/16 03:34:15;;;;;;;1.60;1.50;;;9.90;99.90;;;;;;477263;249;28368;-66
2022/11/16 03:36:14;;;;;;;1.50;1.40;;;9.90;99.90;;;;;;477139;249;28551;-66
2022/11/16 03:38:15;;;;;;;1.50;1.40;;;9.90;99.90;;;;;;477229;249;28018;-67
2022/11/16 03:40:16;;;;;;;1.70;1.47;;;9.80;99.90;;;;;;477260;244;28346;-66
2022/11/16 03:42:18;;;;;;;1.40;1.30;;;9.80;99.90;;;;;;477265;249;28024;-68
2022/11/16 03:44:19;;;;;;;1.60;1.50;;;9.80;99.90;;;;;;477258;249;27846;-66
2022/11/16 03:46:20;;;;;;;1.10;1.10;;;9.80;99.90;;;;;;477221;249;27967;-67
2022/11/16 03:48:21;;;;;;;1.13;1.13;;;9.80;99.90;;;;;;477222;249;27991;-66
2022/11/16 03:50:23;;;;;;;1.40;1.30;;;9.80;99.90;;;;;;477241;249;27925;-66
2022/11/16 03:52:24;;;;;;;1.30;1.20;;;9.80;99.90;;;;;;477231;249;27983;-69
2022/11/16 03:54:25;;;;;;;1.10;1.10;;;9.80;99.90;;;;;;477244;249;27772;-66
2022/11/16 03:56:26;;;;;;;1.37;1.27;;;9.80;99.90;;;;;;477238;249;28229;-67
2022/11/16 03:58:28;;;;;;;1.40;1.30;;;9.80;99.90;;;;;;477245;249;27952;-66
2022/11/16 04:00:29;;;;;;;1.00;1.00;;;9.80;99.90;;;;;;477255;249;27995;-66
2022/11/16 04:02:30;;;;;;;1.13;1.13;;;9.80;99.90;;;;;;477251;249;27861;-68
2022/11/16 04:25:28;;;;;;;1.20;1.20;;;9.80;99.90;;;;;;477238;249;28842;-64
2022/11/16 04:29:49;;;;;;;1.50;1.40;;;9.80;99.90;;;;;;477270;249;27656;-65
2022/11/16 04:38:49;;;;;;;1.33;1.20;;;9.80;99.90;;;;;;477298;249;28196;-67
2022/11/16 04:40:50;;;;;;;1.27;1.27;;;9.80;99.90;;;;;;477269;249;28003;-66
2022/11/16 04:42:52;;;;;;;1.50;1.40;;;9.80;99.90;;;;;;477249;249;28020;-67
2022/11/16 04:47:12;;;;;;;1.27;1.17;;;9.80;99.90;;;;;;477234;249;28405;-65
2022/11/16 04:49:13;;;;;;;1.50;1.40;;;9.80;99.90;;;;;;477265;249;28366;-68
2022/11/16 04:51:15;;;;;;;1.50;1.40;;;9.80;99.90;;;;;;477250;249;28464;-66
2022/11/16 04:53:16;;;;;;;1.23;1.23;;;9.80;99.90;;;;;;477243;249;28501;-67
2022/11/16 04:55:17;;;;;;;1.40;1.30;;;9.80;99.90;;;;;;477212;249;28438;-66
2022/11/16 04:57:18;;;;;;;1.63;1.53;;;9.80;99.90;;;;;;477248;249;27726;-66
2022/11/16 04:59:20;;;;;;;4.33;1.67;;;9.80;99.90;;;;;;477262;249;28251;-69
2022/11/16 05:02:06;;;;;;;1.40;1.30;;;9.80;99.90;;;;;;477215;249;27622;-67
2022/11/16 05:03:22;;;;;;;1.47;1.40;;;9.80;99.90;;;;;;475654;249;27976;-66
2022/11/16 05:05:23;;;;;;;1.43;1.33;;;9.80;99.90;;;;;;477221;249;28098;-66
2022/11/16 05:07:25;;;;;;;1.30;1.20;;;9.80;99.90;;;;;;477243;249;28248;-67
2022/11/16 05:09:26;;;;;;;1.87;1.37;;;9.80;99.90;;;;;;477268;249;27748;-70
2022/11/16 05:11:27;;;;;;;1.40;1.40;;;9.80;99.90;;;;;;477257;249;28001;-67
2022/11/16 05:13:28;;;;;;;2.13;1.77;;;9.80;99.90;;;;;;477243;249;28167;-67
2022/11/16 05:15:30;;;;;;;1.57;1.40;;;9.80;99.90;;;;;;477185;249;27996;-67
2022/11/16 05:17:31;;;;;;;1.63;1.40;;;9.90;99.90;;;;;;477284;249;27851;-66
2022/11/16 05:21:52;;;;;;;1.67;1.57;;;9.90;99.90;;;;;;477247;249;28039;-64
2022/11/16 05:26:12;;;;;;;1.73;1.63;;;9.80;99.90;;;;;;477274;249;28052;-67
2022/11/16 05:28:13;;;;;;;2.07;1.90;;;9.80;99.90;;;;;;477238;249;28022;-65
2022/11/16 05:30:15;;;;;;;1.80;1.70;;;9.80;99.90;;;;;;477210;249;28059;-67
2022/11/16 05:32:16;;;;;;;2.00;1.90;;;9.80;99.90;;;;;;477235;249;27747;-66
2022/11/16 05:34:17;;;;;;;1.97;1.87;;;9.80;99.90;;;;;;477261;249;27583;-66
2022/11/16 05:36:18;;;;;;;1.97;1.77;;;9.80;99.90;;;;;;477255;249;28472;-69
2022/11/16 05:38:20;;;;;;;2.00;1.90;;;9.80;99.90;;;;;;477252;249;27974;-66
2022/11/16 05:40:21;;;;;;;2.67;2.40;;;9.80;99.90;;;;;;477236;249;28475;-67
2022/11/16 05:42:22;;;;;;;2.00;1.90;;;9.80;99.90;;;;;;477237;249;28634;-66
2022/11/16 05:44:23;;;;;;;2.30;1.90;;;9.80;99.90;;;;;;477251;249;28435;-66
2022/11/16 05:46:25;;;;;;;3.10;2.90;;;9.80;99.90;;;;;;477267;249;28540;-69
2022/11/16 05:48:26;;;;;;;2.10;2.00;;;9.80;99.90;;;;;;477231;249;28476;-66
2022/11/16 05:50:27;;;;;;;3.87;2.13;;;9.80;99.90;;;;;;477235;249;28119;-66
2022/11/16 05:52:28;;;;;;;2.87;2.10;;;9.80;99.90;;;;;;477242;249;27971;-66
2022/11/16 05:54:30;;;;;;;2.20;2.00;;;9.80;99.90;;;;;;477260;249;27833;-67
2022/11/16 05:56:31;;;;;;;3.10;1.90;;;9.80;99.90;;;;;;477264;249;28160;-68
2022/11/16 05:58:32;;;;;;;2.63;2.43;;;9.80;99.90;;;;;;477246;249;28054;-66
2022/11/16 06:00:33;;;;;;;1.90;1.80;;;9.80;99.90;;;;;;477221;249;27999;-66
2022/11/16 06:02:35;;;;;;;3.30;2.13;;;9.80;99.90;;;;;;477243;249;28084;-66
2022/11/16 06:04:36;;;;;;;3.10;2.40;;;9.80;99.90;;;;;;477273;249;27767;-67
2022/11/16 06:06:37;;;;;;;2.03;1.93;;;9.90;99.90;;;;;;477258;249;27655;-68
2022/11/16 06:08:38;;;;;;;4.10;2.30;;;9.90;99.90;;;;;;477230;249;27738;-66
2022/11/16 06:10:40;;;;;;;4.50;2.57;;;9.90;99.90;;;;;;477216;249;28219;-66
2022/11/16 06:12:41;;;;;;;2.73;2.50;;;9.80;99.90;;;;;;477170;249;28043;-66
2022/11/16 06:14:42;;;;;;;2.43;2.30;;;9.80;99.90;;;;;;477288;249;27498;-67
2022/11/16 06:16:43;;;;;;;3.80;2.50;;;9.80;99.90;;;;;;477279;249;28012;-68
2022/11/16 06:18:45;;;;;;;3.50;2.20;;;9.80;99.90;;;;;;477250;249;28878;-66
2022/11/16 06:20:46;;;;;;;2.90;2.53;;;9.80;99.90;;;;;;477246;249;28526;-67
2022/11/16 06:22:47;;;;;;;4.47;2.60;;;9.70;99.90;;;;;;477247;249;29216;-68
2022/11/16 06:24:48;;;;;;;5.70;2.90;;;9.70;99.90;;;;;;477271;249;28529;-66
2022/11/16 06:26:50;;;;;;;3.33;2.37;;;9.70;99.90;;;;;;477269;249;28028;-68
2022/11/16 06:28:53;;;;;;;4.23;2.63;;;9.70;99.90;;;;;;477251;249;27950;-65
2022/11/16 06:30:52;;;;;;;2.67;2.47;;;9.70;99.90;;;;;;477101;249;28227;-68
2022/11/16 06:32:53;;;;;;;5.50;2.93;;;9.60;99.90;;;;;;477227;249;27977;-66
2022/11/16 06:34:55;;;;;;;3.10;2.80;;;9.50;99.90;;;;;;477263;249;27615;-66
2022/11/16 06:36:56;;;;;;;4.10;2.53;;;9.50;99.90;;;;;;477264;249;28180;-67
2022/11/16 06:38:57;;;;;;;3.90;2.97;;;9.40;99.90;;;;;;477238;249;27989;-66
2022/11/16 06:40:58;;;;;;;5.00;2.70;;;9.40;99.90;;;;;;477244;249;27687;-66
2022/11/16 06:43:00;;;;;;;6.77;2.87;;;9.40;99.90;;;;;;477211;249;28011;-65
2022/11/16 06:45:01;;;;;;;7.50;2.90;;;9.40;99.90;;;;;;477287;249;28025;-66
2022/11/16 06:47:02;;;;;;;3.03;2.73;;;9.40;99.90;;;;;;477264;249;28068;-66
2022/11/16 06:49:03;;;;;;;6.50;2.83;;;9.40;99.90;;;;;;477289;249;28031;-66
2022/11/16 06:51:05;;;;;;;5.57;2.50;;;9.40;99.90;;;;;;477293;249;28364;-66
2022/11/16 06:53:06;;;;;;;7.30;2.63;;;9.40;99.90;;;;;;477266;249;29467;-66
2022/11/16 06:55:07;;;;;;;3.40;2.57;;;9.40;99.90;;;;;;477337;249;28486;-65
2022/11/16 06:57:08;;;;;;;4.50;2.50;;;9.40;99.90;;;;;;477320;249;28219;-67
2022/11/16 06:59:10;;;;;;;4.83;2.53;;;9.50;99.90;;;;;;477330;249;28415;-65
2022/11/16 07:01:11;;;;;;;4.77;2.43;;;9.40;99.90;;;;;;477246;249;28521;-66
2022/11/16 07:03:12;;;;;;;5.60;2.47;;;9.40;99.90;;;;;;477274;249;28006;-65
2022/11/16 07:05:13;;;;;;;4.23;2.60;;;9.40;99.90;;;;;;477281;249;27932;-67
2022/11/16 07:07:15;;;;;;;3.17;2.40;;;9.40;99.90;;;;;;477276;247;28112;-67
2022/11/16 07:09:16;;;;;;;2.83;2.33;;;9.40;99.90;;;;;;477254;249;28032;-65
2022/11/16 07:11:19;;;;;;;2.80;2.27;;;9.30;99.90;;;;;;477228;249;28022;-66
2022/11/16 07:13:18;;;;;;;2.90;2.23;;;9.20;99.90;;;;;;477182;249;27520;-65
2022/11/16 07:15:20;;;;;;;6.40;2.77;;;9.20;99.90;;;;;;477266;249;28090;-66
2022/11/16 07:17:21;;;;;;;2.70;2.50;;;9.10;99.90;;;;;;477254;249;28042;-66
2022/11/16 07:19:22;;;;;;;4.70;2.60;;;9.10;99.90;;;;;;477249;249;28564;-65
2022/11/16 07:21:24;;;;;;;3.50;2.50;;;9.00;99.90;;;;;;477234;249;28448;-66
2022/11/16 07:23:25;;;;;;;5.20;2.37;;;9.00;99.90;;;;;;477286;249;27702;-68
2022/11/16 07:25:26;;;;;;;3.40;2.20;;;8.90;99.90;;;;;;477267;249;27658;-66
2022/11/16 07:27:27;;;;;;;2.90;2.60;;;8.90;99.90;;;;;;477226;249;27994;-66
2022/11/16 07:29:30;;;;;;;7.80;2.97;;;8.90;99.90;;;;;;477246;249;27969;-65
2022/11/16 07:31:30;;;;;;;3.43;2.40;;;8.90;99.90;;;;;;477191;249;28126;-66
2022/11/16 07:33:31;;;;;;;6.10;2.40;;;8.90;99.90;;;;;;477153;249;28544;-69
2022/11/16 07:35:32;;;;;;;3.87;2.10;;;8.90;99.90;;;;;;477278;249;28446;-65
2022/11/16 07:37:34;;;;;;;4.67;2.27;;;8.90;99.90;;;;;;477242;249;28488;-66
2022/11/16 07:39:35;;;;;;;4.90;2.20;;;8.80;99.90;;;;;;477224;249;28905;-65
2022/11/16 07:41:37;;;;;;;2.00;1.80;;;8.80;99.90;;;;;;477236;249;27622;-67
2022/11/16 07:43:38;;;;;;;2.83;1.90;;;8.70;99.90;;;;;;477227;249;28022;-70
2022/11/16 07:45:39;;;;;;;3.37;1.83;;;8.70;99.90;;;;;;477212;249;27973;-65
2022/11/16 07:47:40;;;;;;;4.93;1.60;;;8.70;99.90;;;;;;477245;249;27527;-67
2022/11/16 07:49:41;;;;;;;2.97;1.70;;;8.60;99.90;;;;;;477253;249;28075;-65
2022/11/16 07:51:42;;;;;;;2.70;1.80;;;8.60;99.90;;;;;;477276;249;28020;-66
2022/11/16 07:53:44;;;;;;;2.30;1.50;;;8.60;99.90;;;;;;477288;249;28033;-68
2022/11/16 07:55:45;;;;;;;1.50;1.40;;;8.60;99.90;;;;;;477265;249;27869;-66
2022/11/16 07:57:46;;;;;;;2.13;1.53;;;8.60;99.90;;;;;;477287;249;28088;-66
2022/11/16 07:59:47;;;;;;;3.30;1.77;;;8.60;99.90;;;;;;477238;249;28186;-65
2022/11/16 08:01:49;;;;;;;2.60;1.70;;;8.60;99.90;;;;;;477261;249;27930;-66
2022/11/16 08:03:50;;;;;;;2.40;1.80;;;8.60;99.90;;;;;;477144;249;27880;-66
2022/11/16 08:05:51;;;;;;;5.10;1.50;;;8.60;99.90;;;;;;477079;249;28121;-65
2022/11/16 08:07:52;;;;;;;2.27;1.87;;;8.60;99.90;;;;;;477043;249;27648;-66
2022/11/16 08:09:54;;;;;;;5.23;1.60;;;8.70;99.90;;;;;;477026;249;29214;-67
2022/11/16 08:11:55;;;;;;;4.33;1.73;;;8.60;99.90;;;;;;477273;249;28381;-66
2022/11/16 08:13:56;;;;;;;4.50;1.60;;;8.60;99.90;;;;;;477263;249;28728;-67
2022/11/16 08:15:57;;;;;;;2.93;1.80;;;8.60;99.90;;;;;;477255;249;28412;-65
2022/11/16 08:17:59;;;;;;;4.30;1.83;;;8.60;99.90;;;;;;477225;249;28570;-66
2022/11/16 08:20:00;;;;;;;1.70;1.47;;;8.70;99.90;;;;;;477241;249;28119;-65
2022/11/16 08:22:01;;;;;;;2.57;1.43;;;8.80;99.90;;;;;;477254;249;27990;-66
2022/11/16 08:24:02;;;;;;;3.43;1.50;;;8.80;99.90;;;;;;477243;249;28166;-66
2022/11/16 08:26:04;;;;;;;4.10;1.77;;;8.80;99.90;;;;;;477213;249;27985;-66
2022/11/16 08:28:05;;;;;;;4.40;1.57;;;8.90;99.90;;;;;;477247;249;27906;-65
2022/11/16 08:30:08;;;;;;;1.50;1.40;;;8.90;99.90;;;;;;477297;249;27576;-65
2022/11/16 08:32:07;;;;;;;4.17;1.70;;;9.00;99.90;;;;;;477109;249;27962;-66
2022/11/16 08:34:09;;;;;;;2.70;1.90;;;9.00;99.90;;;;;;477257;249;28090;-67
2022/11/16 08:36:11;;;;;;;6.87;2.20;;;9.00;99.90;;;;;;477233;249;27741;-65
2022/11/16 08:38:11;;;;;;;6.27;2.53;;;9.10;99.90;;;;;;477153;249;28145;-66
2022/11/16 08:40:13;;;;;;;8.30;3.23;;;9.10;99.90;;;;;;477257;249;27905;-68
2022/11/16 08:42:14;;;;;;;7.40;3.37;;;9.20;99.90;;;;;;477217;249;27698;-65
2022/11/16 08:44:15;;;;;;;5.67;3.03;;;9.30;99.90;;;;;;477254;249;28022;-68
2022/11/16 08:46:16;;;;;;;5.63;3.20;;;9.30;99.90;;;;;;477226;249;28023;-66
2022/11/16 08:48:17;;;;;;;3.53;2.90;;;9.30;99.90;;;;;;477215;249;28322;-66
2022/11/16 08:50:19;;;;;;;3.40;3.10;;;9.40;99.90;;;;;;477271;249;28592;-69
2022/11/16 08:52:20;;;;;;;4.30;2.80;;;9.50;99.90;;;;;;477269;249;28421;-65
2022/11/16 08:54:21;;;;;;;3.33;2.70;;;9.60;99.90;;;;;;477236;249;28527;-66
2022/11/16 08:56:22;;;;;;;6.00;2.97;;;9.60;99.90;;;;;;477217;249;28333;-66
2022/11/16 08:58:24;;;;;;;5.30;2.40;;;9.50;99.90;;;;;;477216;249;28122;-66
2022/11/16 09:00:25;;;;;;;3.27;2.80;;;9.50;99.90;;;;;;477289;249;28005;-68
2022/11/16 09:02:26;;;;;;;4.40;2.27;;;9.60;99.90;;;;;;477252;249;28048;-65
2022/11/16 09:04:27;;;;;;;5.10;2.60;;;9.60;99.90;;;;;;477242;249;27669;-67
2022/11/16 09:06:29;;;;;;;2.67;2.47;;;9.60;99.90;;;;;;477220;249;28046;-65
2022/11/16 09:08:30;;;;;;;4.13;2.43;;;9.70;99.90;;;;;;477216;249;28425;-66
2022/11/16 09:10:31;;;;;;;3.20;2.50;;;9.80;99.90;;;;;;477244;249;29137;-69
2022/11/16 09:12:32;;;;;;;3.43;2.30;;;9.90;99.90;;;;;;477248;249;28531;-66
2022/11/16 09:14:34;;;;;;;3.00;2.27;;;9.90;99.90;;;;;;477247;249;28157;-66
2022/11/16 09:16:35;;;;;;;2.67;2.13;;;9.90;99.90;;;;;;477244;249;28378;-65
2022/11/16 09:18:36;;;;;;;2.40;2.13;;;9.90;99.90;;;;;;477237;249;28369;-66
2022/11/16 09:20:37;;;;;;;6.40;2.40;;;9.90;99.90;;;;;;477276;249;28136;-69
2022/11/16 09:22:39;;;;;;;3.93;2.17;;;9.90;99.90;;;;;;477253;249;27838;-65
2022/11/16 09:24:40;;;;;;;3.27;2.40;;;9.80;99.90;;;;;;477228;249;28037;-66
2022/11/16 09:26:41;;;;;;;3.07;2.23;;;9.90;99.90;;;;;;477238;249;28058;-65
2022/11/16 09:28:42;;;;;;;4.20;2.08;;;9.90;99.90;;;;;;475287;249;36198;-66
2022/11/16 09:30:44;;;;;;;3.80;2.17;;;10.00;99.90;;;;;;477274;249;27571;-69
2022/11/16 09:32:45;;;;;;;4.43;2.00;;;10.00;99.90;;;;;;477259;249;28084;-66
2022/11/16 09:34:46;;;;;;;3.97;2.00;;;10.10;99.90;;;;;;477242;249;28167;-66
2022/11/16 09:36:47;;;;;;;3.73;2.20;;;10.10;99.90;;;;;;477234;249;27720;-65
2022/11/16 09:38:49;;;;;;;4.63;2.23;;;10.10;99.90;;;;;;477213;249;27940;-66
2022/11/16 09:40:50;;;;;;;5.13;2.30;;;10.20;99.90;;;;;;477255;249;28626;-69
2022/11/16 09:42:51;;;;;;;1.83;1.73;;;10.30;99.90;;;;;;477240;249;28443;-66
2022/11/16 09:44:52;;;;;;;2.70;1.83;;;10.40;99.90;;;;;;477233;249;28678;-66
2022/11/16 09:46:54;;;;;;;3.87;2.20;;;10.30;99.90;;;;;;477231;249;28409;-66
2022/11/16 09:48:55;;;;;;;3.27;1.77;;;10.30;99.90;;;;;;477249;249;27804;-67
2022/11/16 09:50:56;;;;;;;3.23;2.00;;;10.30;99.90;;;;;;477301;249;28151;-69
2022/11/16 09:52:57;;;;;;;3.27;1.70;;;10.40;99.90;;;;;;477273;249;27966;-66
2022/11/16 09:54:59;;;;;;;5.87;2.07;;;10.50;99.90;;;;;;477269;249;27944;-67
2022/11/16 09:57:00;;;;;;;2.83;1.70;;;10.50;99.90;;;;;;477215;249;27742;-66
2022/11/16 09:59:01;;;;;;;5.23;1.90;;;10.60;99.90;;;;;;477277;249;28054;-65
2022/11/16 10:01:02;;;;;;;4.10;1.87;;;10.60;99.90;;;;;;477260;249;27919;-70
2022/11/16 10:03:04;;;;;;;4.73;2.17;;;10.60;99.90;;;;;;476939;249;28109;-65
2022/11/16 10:05:05;;;;;;;3.03;1.80;;;10.70;99.90;;;;;;477273;249;28074;-67
2022/11/16 10:07:06;;;;;;;2.57;1.60;;;10.90;99.90;;;;;;477260;249;28464;-66
2022/11/16 10:09:09;;;;;;;2.77;1.67;;;10.90;99.90;;;;;;477242;249;28314;-66
2022/11/16 10:11:09;;;;;;;2.30;1.63;;;10.80;99.90;;;;;;477192;249;28482;-69
2022/11/16 10:13:10;;;;;;;1.90;1.57;;;10.90;99.90;;;;;;477310;249;28040;-66
2022/11/16 10:15:11;;;;;;;4.50;1.70;;;10.90;99.90;;;;;;477272;249;28002;-66
2022/11/16 10:17:12;;;;;;;2.63;1.70;;;11.10;99.90;;;;;;477246;249;28098;-66
2022/11/16 10:19:14;;;;;;;3.73;1.70;;;11.30;99.90;;;;;;477232;249;28117;-66
2022/11/16 10:21:15;;;;;;;4.10;1.80;;;11.30;99.90;;;;;;477280;249;28261;-69
2022/11/16 10:23:16;;;;;;;4.90;2.07;;;11.40;99.90;;;;;;477254;249;28239;-65
2022/11/16 10:25:17;;;;;;;5.07;1.80;;;11.40;99.90;;;;;;477259;249;28276;-67
2022/11/16 10:27:19;;;;;;;5.20;1.97;;;11.30;99.90;;;;;;477247;249;28190;-66
2022/11/16 10:29:20;;;;;;;5.17;1.50;;;11.20;99.90;;;;;;477240;249;28334;-66
2022/11/16 10:31:21;;;;;;;4.87;1.60;;;11.20;99.90;;;;;;477264;249;28860;-69
2022/11/16 10:33:22;;;;;;;2.07;1.87;;;11.30;99.90;;;;;;477273;249;28763;-66
2022/11/16 10:35:24;;;;;;;6.80;1.60;;;11.30;99.90;;;;;;477272;249;28618;-67
2022/11/16 10:37:25;;;;;;;6.70;2.50;;;11.20;99.90;;;;;;477255;249;28218;-66
2022/11/16 10:39:26;;;;;;;5.53;2.03;;;11.20;99.90;;;;;;477240;249;28353;-66
2022/11/16 10:41:27;;;;;;;2.87;1.47;;;11.20;99.90;;;;;;477241;249;28052;-67
2022/11/16 10:43:29;;;;;;;5.37;1.83;;;11.10;99.90;;;;;;477266;249;28276;-66
2022/11/16 10:45:30;;;;;;;7.50;1.80;;;11.10;99.90;;;;;;477281;249;28077;-67
2022/11/16 10:47:31;;;;;;;6.00;1.80;;;11.10;99.90;;;;;;477246;249;28095;-66
2022/11/16 10:49:32;;;;;;;7.00;1.77;;;11.10;99.90;;;;;;477294;249;28201;-66
2022/11/16 10:51:34;;;;;;;4.00;1.73;;;11.10;99.90;;;;;;477305;249;28287;-70
2022/11/16 10:53:35;;;;;;;9.17;2.00;;;11.10;99.90;;;;;;477350;249;28091;-65
2022/11/16 10:55:36;;;;;;;6.60;1.70;;;11.10;99.90;;;;;;477299;249;28512;-67
2022/11/16 10:57:37;;;;;;;3.93;1.70;;;11.20;99.90;;;;;;477272;249;28575;-66
2022/11/16 10:59:39;;;;;;;4.07;1.97;;;11.30;99.90;;;;;;477228;249;28781;-66
2022/11/16 11:01:40;;;;;;;1.80;1.50;;;11.40;99.90;;;;;;477277;249;28127;-68
2022/11/16 11:03:41;;;;;;;4.73;1.30;;;11.40;99.90;;;;;;477267;249;28215;-66
2022/11/16 11:05:43;;;;;;;4.57;1.70;;;11.40;99.90;;;;;;477265;249;28446;-66
2022/11/16 11:07:44;;;;;;;5.13;1.83;;;11.40;99.90;;;;;;477197;249;28226;-65
2022/11/16 11:09:45;;;;;;;4.93;1.60;;;11.40;99.90;;;;;;477265;249;28004;-67
2022/11/16 11:14:06;;;;;;;3.77;1.50;;;11.20;99.90;;;;;;477245;249;28126;-65
2022/11/16 11:16:07;;;;;;;4.57;1.90;;;11.10;99.90;;;;;;477233;249;28422;-66
2022/11/16 11:18:09;;;;;;;2.20;1.60;;;11.10;99.90;;;;;;477268;249;28150;-68